White Pigeon, Iowa
Current Conditions -  °F | °C
As of 1:15 AM on Friday 31 Oct 2014 (Local Time) from KOOA Reporting Station
Overcast Overcast  
Wind Chill: 37°   Ceiling: 3100
Heat Index: 46°   Visibility: 10mi
Dew Point: 35°   Wind: 26mph
Humidity: 65%   Direction: 360°N
Pressure: 30.21"   Gusts: 33mph
Location:  41.5522°N, 92.1189°W
Report Text: KOOA 310615Z AUTO 36023G29KT 10SM OVC031 08/02 A3021 RMK AO2 T00790016
Loading
Personal Weather Stations






























Interactive Weather Map
Tropical Storm Tracking
New forecast layout! Learn more

10-Day Weather Forecast

Advertisements
Track Severe Weather on mobile